Погода Ватолихана 2 недели

Тверская область, Россия

23 мая-04 июня
  • 23мая
    Сегодня
    +9°
    +23°
    Ясно и безоблачно
    ВремяПогодаТемператураВлажностьДавлениеВетер, м/сВероятность осадков
    00:00Ясно и безоблачно+12°C58 %752 мм3.1 м/с2 %
    03:00Ясно и безоблачно+10°C61 %752 мм3.2 м/с2 %
    06:00Ясно и безоблачно+10°C62 %753 мм3.6 м/с2 %
    09:00Ясно и безоблачно+17°C53 %754 мм3.9 м/с2 %
    12:00Ясно и безоблачно+22°C38 %754 мм4.8 м/с2 %
    15:00Ясно и безоблачно+23°C35 %754 мм4.0 м/с2 %
    18:00Ясно и безоблачно+23°C37 %754 мм4.1 м/с2 %
    21:00Ясно и безоблачно+17°C51 %755 мм3.6 м/с2 %
  • 24мая
    Пятница
    +8°
    +23°
    Ясно и безоблачно
    ВремяПогодаТемператураВлажностьДавлениеВетер, м/сВероятность осадков
    00:00Ясно и безоблачно+12°C58 %756 мм3.2 м/с2 %
    03:00Ясно и безоблачно+10°C68 %756 мм2.9 м/с2 %
    06:00Ясно и безоблачно+10°C68 %757 мм3.1 м/с2 %
    09:00Ясно и безоблачно+16°C49 %758 мм3.8 м/с2 %
    12:00Ясно и безоблачно+20°C34 %758 мм4.5 м/с2 %
    15:00Ясно и безоблачно+21°C32 %757 мм4.0 м/с2 %
    18:00Ясно и безоблачно+22°C35 %756 мм3.5 м/с2 %
    21:00Ясно и безоблачно+16°C53 %756 мм2.7 м/с2 %
  • 25мая
    Суббота
    +10°
    +25°
    Ясно и безоблачно
    ВремяПогодаТемператураВлажностьДавлениеВетер, м/сВероятность осадков
    00:00Ясно и безоблачно+11°C57 %756 мм3.2 м/с2 %
    03:00Ясно и безоблачно+9°C65 %756 мм2.7 м/с2 %
    06:00Ясно и безоблачно+9°C71 %756 мм2.6 м/с2 %
    09:00Ясно и безоблачно+16°C60 %755 мм2.3 м/с2 %
    12:00Ясно и безоблачно+22°C46 %755 мм2.8 м/с2 %
    15:00Ясно и безоблачно+24°C40 %754 мм3.0 м/с2 %
    18:00Ясно и безоблачно+24°C40 %753 мм2.4 м/с3 %
    21:00Ясно и безоблачно+18°C69 %752 мм2.1 м/с2 %
  • 26мая
    Воскресенье
    +11°
    +26°
    Облачно с прояснениями
    ВремяПогодаТемператураВлажностьДавлениеВетер, м/сВероятность осадков
    00:00Ясно и безоблачно+12°C75 %752 мм2.0 м/с2 %
    03:00Ясно и безоблачно+11°C80 %752 мм2.3 м/с4 %
    06:00Ясно и безоблачно+12°C81 %752 мм2.2 м/с3 %
    09:00Ясно и безоблачно+19°C63 %753 мм1.6 м/с2 %
    12:00Ясно и безоблачно+24°C42 %753 мм1.8 м/с13 %
    15:00Облачно с прояснениями+25°C38 %752 мм1.1 м/с21 %
    18:00Облачно с прояснениями+26°C37 %752 мм1.0 м/с17 %
    21:00Практически безоблачно+21°C60 %752 мм1.6 м/с8 %
Мы используем cookies
Соглашаюсь